Time;durP1;ratioP1;P1;durP2;ratioP2;P2;SDS_P1;SDS_P2;PMS_P1;PMS_P2;Temp;Humidity;BMP_temperature;BMP_pressure;BME280_temperature;BME280_humidity;BME280_pressure;Samples;Min_cycle;Max_cycle;Signal;HPM_P1;HPM_P2
2021/06/30 00:01:08;;;;;;;2.80;2.40;;;;;;;17.28;94.70;99415.97;5063298;28;20233;-73
2021/06/30 00:03:35;;;;;;;5.17;2.07;;;;;;;17.30;94.64;99426.41;5063439;28;20259;-73
2021/06/30 00:06:01;;;;;;;4.77;2.03;;;;;;;17.31;94.41;99443.94;5063362;28;20236;-72
2021/06/30 00:08:28;;;;;;;4.60;1.80;;;;;;;17.32;94.41;99456.19;5063850;28;20281;-71
2021/06/30 00:10:56;;;;;;;5.87;2.37;;;;;;;17.22;94.88;99453.25;5065696;28;20203;-73
2021/06/30 00:13:24;;;;;;;2.33;2.10;;;;;;;17.27;94.78;99470.50;5064507;28;20337;-73
2021/06/30 00:15:51;;;;;;;3.00;2.00;;;;;;;17.44;94.37;99494.97;5064574;28;20235;-73
2021/06/30 00:18:18;;;;;;;3.73;1.73;;;;;;;17.51;93.75;99525.31;5063525;28;20257;-74
2021/06/30 00:20:44;;;;;;;2.93;1.80;;;;;;;17.37;94.02;99533.25;5063097;28;20219;-73
2021/06/30 00:23:11;;;;;;;4.67;2.10;;;;;;;17.26;94.50;99525.97;5062075;28;20853;-73
2021/06/30 00:25:37;;;;;;;2.57;1.97;;;;;;;17.29;94.97;99517.91;5062655;28;20677;-72
2021/06/30 00:28:05;;;;;;;4.30;2.20;;;;;;;17.32;94.80;99540.59;5063051;28;20273;-73
2021/06/30 00:30:32;;;;;;;7.27;2.20;;;;;;;17.32;94.82;99543.22;5062759;28;20202;-72
2021/06/30 00:32:58;;;;;;;4.17;1.80;;;;;;;17.25;95.04;99551.53;5062465;28;20281;-73
2021/06/30 00:35:24;;;;;;;7.80;2.63;;;;;;;17.22;95.44;99545.56;5062717;28;20203;-69
2021/06/30 00:37:51;;;;;;;3.73;2.37;;;;;;;17.07;95.95;99548.22;5063159;28;20235;-74
2021/06/30 00:40:17;;;;;;;5.63;2.80;;;;;;;17.11;96.28;99553.31;5063018;28;20267;-73
2021/06/30 00:42:44;;;;;;;5.33;2.77;;;;;;;17.13;96.27;99564.63;5062026;28;20287;-71
2021/06/30 00:45:17;;;;;;;6.67;2.77;;;;;;;17.11;96.56;99579.69;5062937;28;20202;-74
2021/06/30 00:47:43;;;;;;;6.83;2.90;;;;;;;17.05;96.82;99589.66;5062547;28;20252;-73
2021/06/30 00:50:11;;;;;;;10.20;3.00;;;;;;;17.08;97.25;99601.78;5062817;28;20675;-71
2021/06/30 00:52:37;;;;;;;5.87;2.57;;;;;;;17.14;96.96;99629.59;5061763;28;20222;-72
2021/06/30 00:55:04;;;;;;;4.60;2.53;;;;;;;17.27;96.51;99664.84;5062619;28;20208;-72
2021/06/30 00:57:30;;;;;;;8.87;2.30;;;;;;;17.35;95.73;99698.69;5061677;28;20231;-74
2021/06/30 00:59:57;;;;;;;8.47;2.17;;;;;;;17.41;94.97;99722.91;5060619;28;20250;-74
2021/06/30 01:02:25;;;;;;;5.40;2.23;;;;;;;17.32;94.91;99731.34;5061635;28;20299;-73
2021/06/30 01:04:52;;;;;;;4.90;2.20;;;;;;;17.21;95.29;99726.72;5062042;28;20231;-73
2021/06/30 01:07:18;;;;;;;4.07;2.20;;;;;;;17.17;95.36;99721.72;5061877;28;20740;-73
2021/06/30 01:09:44;;;;;;;2.70;2.00;;;;;;;17.12;94.85;99745.69;5061812;28;20210;-73
2021/06/30 01:12:11;;;;;;;4.07;2.20;;;;;;;17.09;95.01;99737.16;5061782;28;20203;-73
2021/06/30 01:14:38;;;;;;;3.13;1.97;;;;;;;17.04;95.23;99735.59;5061362;28;20253;-73
2021/06/30 01:17:07;;;;;;;5.63;2.53;;;;;;;16.96;95.56;99722.00;5061600;28;20289;-73
2021/06/30 01:19:37;;;;;;;4.20;2.40;;;;;;;17.04;95.91;99719.78;5061965;28;20203;-74
2021/06/30 01:22:05;;;;;;;3.20;2.87;;;;;;;16.95;96.40;99720.31;5061292;28;20959;-73
2021/06/30 01:24:33;;;;;;;6.97;3.30;;;;;;;16.88;96.73;99717.16;5061594;28;20564;-74
2021/06/30 01:27:00;;;;;;;3.87;3.10;;;;;;;16.87;97.40;99707.56;5060658;28;20280;-74
2021/06/30 01:29:26;;;;;;;3.60;3.30;;;;;;;16.94;97.33;99718.59;5061424;28;20687;-74
2021/06/30 01:31:53;;;;;;;4.37;3.10;;;;;;;16.83;97.49;99729.78;5061478;28;20226;-74
2021/06/30 01:34:20;;;;;;;4.47;3.53;;;;;;;16.73;97.72;99731.19;5061212;28;21120;-73
2021/06/30 01:36:48;;;;;;;4.33;3.93;;;;;;;16.67;98.84;99727.09;5061402;28;20225;-74
2021/06/30 01:39:15;;;;;;;5.27;4.80;;;;;;;16.73;99.16;99736.47;5061529;28;20245;-74
2021/06/30 01:41:44;;;;;;;4.33;3.93;;;;;;;16.85;99.34;99751.63;5061493;28;20582;-75
2021/06/30 01:44:11;;;;;;;4.37;4.07;;;;;;;17.02;99.28;99778.81;5061209;28;20213;-75
2021/06/30 01:46:38;;;;;;;3.83;3.53;;;;;;;17.19;98.91;99799.81;5060986;28;20234;-74
2021/06/30 01:49:05;;;;;;;4.37;3.80;;;;;;;17.30;98.08;99827.38;5061262;28;20203;-74
2021/06/30 01:51:32;;;;;;;6.97;3.80;;;;;;;17.40;96.95;99852.28;5061436;28;20215;-74
2021/06/30 01:54:00;;;;;;;3.80;3.50;;;;;;;17.53;96.20;99881.47;5060874;28;20211;-74
2021/06/30 01:56:29;;;;;;;3.50;3.20;;;;;;;17.62;95.84;99900.28;5060558;28;20223;-74
2021/06/30 01:59:03;;;;;;;6.50;4.07;;;;;;;17.69;95.60;99906.06;5060664;28;20264;-74
2021/06/30 02:01:30;;;;;;;9.40;3.30;;;;;;;17.75;95.17;99918.06;5061550;28;20290;-74
2021/06/30 02:03:57;;;;;;;4.87;3.30;;;;;;;17.79;94.42;99944.19;5061058;28;20203;-74
2021/06/30 02:06:23;;;;;;;3.53;3.23;;;;;;;17.79;93.89;99952.09;5061136;28;20224;-75
2021/06/30 02:08:50;;;;;;;9.23;3.70;;;;;;;17.81;93.78;99952.03;5060675;28;20681;-75
2021/06/30 02:11:16;;;;;;;3.27;2.70;;;;;;;17.87;93.77;99949.06;5060502;28;20204;-74
2021/06/30 02:13:43;;;;;;;3.17;2.60;;;;;;;17.88;93.04;99950.78;5061171;28;20213;-74
2021/06/30 02:16:11;;;;;;;2.57;2.37;;;;;;;17.83;92.63;99964.22;5061336;28;20281;-74
2021/06/30 02:18:37;;;;;;;2.43;2.23;;;;;;;17.89;92.98;99935.78;5060759;28;20215;-74
2021/06/30 02:21:04;;;;;;;3.67;2.70;;;;;;;17.49;92.13;99957.31;5061241;28;21115;-74
2021/06/30 02:23:30;;;;;;;3.60;3.30;;;;;;;17.27;93.59;99911.00;5060958;28;20227;-74
2021/06/30 02:25:57;;;;;;;4.80;3.30;;;;;;;16.99;94.95;99851.03;5060886;28;20223;-74
2021/06/30 02:28:23;;;;;;;4.27;3.33;;;;;;;17.09;95.64;99826.81;5060751;28;20202;-75
2021/06/30 02:30:50;;;;;;;3.43;3.13;;;;;;;17.19;95.63;99820.06;5061479;28;20216;-74
2021/06/30 02:33:18;;;;;;;3.57;3.27;;;;;;;17.14;95.53;99824.75;5061263;28;20206;-74
2021/06/30 02:35:44;;;;;;;6.03;3.20;;;;;;;17.26;95.48;99816.13;5061235;28;20210;-75
2021/06/30 02:38:12;;;;;;;3.90;3.53;;;;;;;17.02;95.11;99840.31;5060491;28;20223;-74
2021/06/30 02:40:38;;;;;;;4.17;3.77;;;;;;;16.84;96.33;99802.63;5061889;28;20303;-74
2021/06/30 02:43:05;;;;;;;3.83;3.47;;;;;;;16.86;96.52;99798.13;5060948;28;20221;-74
2021/06/30 02:45:32;;;;;;;4.00;3.70;;;;;;;16.97;96.41;99794.06;5061319;28;20261;-75
2021/06/30 02:47:58;;;;;;;3.60;3.30;;;;;;;17.05;96.13;99795.31;5065254;28;20211;-74
2021/06/30 02:50:26;;;;;;;4.10;3.70;;;;;;;17.15;95.71;99805.34;5064697;28;20313;-74
2021/06/30 02:52:53;;;;;;;5.47;4.10;;;;;;;17.03;95.73;99813.00;5064541;28;20217;-74
2021/06/30 02:55:20;;;;;;;4.20;3.90;;;;;;;17.16;95.97;99799.97;5064693;28;20208;-75
2021/06/30 02:57:48;;;;;;;4.40;4.10;;;;;;;17.23;95.43;99803.97;5064718;28;20794;-74
2021/06/30 03:00:17;;;;;;;4.07;3.23;;;;;;;17.32;95.08;99812.28;5064428;28;20207;-74
2021/06/30 03:02:45;;;;;;;3.90;3.60;;;;;;;17.31;94.37;99840.47;5063926;28;20515;-74
2021/06/30 03:05:11;;;;;;;4.07;3.70;;;;;;;17.13;94.42;99850.28;5064312;28;20252;-74
2021/06/30 03:07:39;;;;;;;4.63;4.23;;;;;;;17.05;94.75;99832.22;5063838;28;20276;-74
2021/06/30 03:10:07;;;;;;;4.67;4.10;;;;;;;17.10;94.99;99826.69;5064930;28;20682;-74
2021/06/30 03:12:34;;;;;;;5.17;4.77;;;;;;;16.93;95.33;99813.63;5063996;28;20276;-75
2021/06/30 03:15:00;;;;;;;5.50;5.20;;;;;;;16.99;95.31;99811.47;5064445;28;20205;-74
2021/06/30 03:17:27;;;;;;;5.63;5.23;;;;;;;16.90;95.80;99805.88;5064106;28;20222;-75
2021/06/30 03:19:53;;;;;;;6.57;6.07;;;;;;;16.87;95.95;99791.91;5064625;28;20218;-74
2021/06/30 03:22:20;;;;;;;6.43;6.00;;;;;;;16.72;97.03;99773.44;5063567;28;20653;-73
2021/06/30 03:24:48;;;;;;;7.23;6.53;;;;;;;16.62;97.80;99750.22;5064095;28;20220;-73
2021/06/30 03:27:14;;;;;;;8.33;7.53;;;;;;;16.52;98.49;99720.03;5064496;28;20292;-74
2021/06/30 03:29:41;;;;;;;7.83;7.13;;;;;;;16.42;99.12;99714.44;5064105;28;20207;-74
2021/06/30 03:32:08;;;;;;;8.23;7.60;;;;;;;16.40;99.63;99716.28;5064022;28;20260;-74
2021/06/30 03:34:34;;;;;;;8.60;7.80;;;;;;;16.44;99.82;99722.25;5063529;28;20203;-73
2021/06/30 03:37:00;;;;;;;8.77;8.17;;;;;;;16.42;99.85;99718.84;5064236;28;20222;-73
2021/06/30 03:39:27;;;;;;;7.90;7.30;;;;;;;16.40;99.79;99731.25;5063706;28;20252;-73
2021/06/30 03:41:55;;;;;;;9.13;8.30;;;;;;;16.38;99.90;99741.88;5063535;28;20699;-74
2021/06/30 03:44:21;;;;;;;7.50;7.00;;;;;;;16.45;100.00;99751.16;5063899;28;20241;-73
2021/06/30 03:46:49;;;;;;;8.60;7.90;;;;;;;16.41;99.86;99754.91;5063321;28;20228;-73
2021/06/30 03:49:16;;;;;;;8.63;7.83;;;;;;;16.41;99.94;99765.44;5063578;28;20211;-73
2021/06/30 03:51:42;;;;;;;9.57;8.77;;;;;;;16.38;100.00;99767.38;5063524;28;20216;-74
2021/06/30 03:54:09;;;;;;;9.23;8.43;;;;;;;16.33;100.00;99786.03;5063348;28;20204;-73
2021/06/30 03:56:36;;;;;;;9.67;8.87;;;;;;;16.27;100.00;99779.34;5063417;28;20239;-73
2021/06/30 03:59:04;;;;;;;8.93;8.13;;;;;;;16.40;100.00;99786.56;5063587;28;20267;-74
2021/06/30 04:01:31;;;;;;;8.77;8.17;;;;;;;16.39;100.00;99790.13;5062471;28;20235;-74
2021/06/30 04:04:00;;;;;;;8.20;7.60;;;;;;;16.55;100.00;99805.97;5062588;28;20230;-73
2021/06/30 04:06:26;;;;;;;7.97;7.37;;;;;;;16.64;100.00;99802.84;5062318;28;20235;-73
2021/06/30 04:08:53;;;;;;;6.83;6.33;;;;;;;16.81;99.85;99807.22;5063198;28;20634;-73
2021/06/30 04:11:20;;;;;;;7.83;7.23;;;;;;;16.95;99.36;99811.75;5063166;28;20245;-74
2021/06/30 04:13:47;;;;;;;6.70;6.10;;;;;;;17.06;98.44;99827.81;5062109;28;20256;-73
2021/06/30 04:16:14;;;;;;;7.30;6.60;;;;;;;17.18;97.66;99834.19;5062564;28;20990;-74
2021/06/30 04:18:41;;;;;;;8.13;7.53;;;;;;;17.10;96.64;99860.97;5062956;28;20628;-73
2021/06/30 04:21:09;;;;;;;7.77;7.27;;;;;;;17.19;96.13;99873.66;5063173;28;20206;-74
2021/06/30 04:23:35;;;;;;;8.07;7.33;;;;;;;17.18;96.14;99879.84;5062371;28;20804;-74
2021/06/30 04:26:02;;;;;;;7.37;6.77;;;;;;;17.19;95.91;99884.22;5062923;28;20727;-73
2021/06/30 04:28:28;;;;;;;7.20;6.60;;;;;;;17.24;95.95;99884.81;5062678;28;20269;-73
2021/06/30 04:30:55;;;;;;;7.90;7.20;;;;;;;17.22;95.75;99886.69;5062378;28;20218;-73
2021/06/30 04:33:22;;;;;;;7.30;6.70;;;;;;;17.31;95.43;99901.16;5062325;28;20609;-73
2021/06/30 04:35:49;;;;;;;6.83;6.20;;;;;;;17.43;95.47;99894.34;5062412;28;20211;-74
2021/06/30 04:38:15;;;;;;;7.03;6.43;;;;;;;17.46;95.22;99897.66;5062940;28;20214;-73
2021/06/30 04:40:42;;;;;;;7.70;7.10;;;;;;;17.52;94.96;99903.50;5061975;28;20607;-74
2021/06/30 04:43:08;;;;;;;7.77;7.10;;;;;;;17.36;94.84;99920.22;5061931;28;20223;-74
2021/06/30 04:45:34;;;;;;;8.83;8.20;;;;;;;17.30;95.30;99891.53;5062160;28;20685;-73
2021/06/30 04:48:01;;;;;;;7.37;6.77;;;;;;;17.43;95.39;99895.19;5062607;28;20207;-73
2021/06/30 04:50:29;;;;;;;7.87;7.27;;;;;;;17.50;95.02;99903.59;5062739;28;20703;-74
2021/06/30 04:52:55;;;;;;;7.90;7.23;;;;;;;17.56;94.76;99911.19;5062027;28;20656;-74
2021/06/30 04:55:21;;;;;;;8.43;7.73;;;;;;;17.67;94.21;99927.25;5062026;28;20979;-73
2021/06/30 04:57:48;;;;;;;9.40;8.40;;;;;;;17.61;93.78;99942.59;5062127;28;20296;-73
2021/06/30 05:00:15;;;;;;;9.13;8.23;;;;;;;17.52;93.64;99964.22;5062533;28;20251;-73
2021/06/30 05:02:41;;;;;;;8.30;7.60;;;;;;;17.58;93.48;99955.94;5061590;28;20251;-73
2021/06/30 05:05:09;;;;;;;9.17;8.53;;;;;;;17.50;93.38;99955.53;5062222;28;20207;-74
2021/06/30 05:07:36;;;;;;;10.00;9.13;;;;;;;17.57;93.29;99959.53;5062064;28;20230;-73
2021/06/30 05:10:03;;;;;;;9.83;9.07;;;;;;;17.33;94.05;99922.19;5061305;28;20202;-74
2021/06/30 05:12:29;;;;;;;10.23;9.33;;;;;;;17.02;95.06;99889.56;5062173;28;20205;-74
2021/06/30 05:14:56;;;;;;;11.00;10.27;;;;;;;16.87;96.10;99849.06;5062268;28;20259;-74
2021/06/30 05:17:22;;;;;;;11.63;10.63;;;;;;;16.68;97.13;99825.47;5062080;28;20736;-74
2021/06/30 05:19:49;;;;;;;11.30;10.37;;;;;;;16.83;97.70;99808.84;5061718;28;20268;-73
2021/06/30 05:22:15;;;;;;;10.23;9.43;;;;;;;16.86;97.41;99815.72;5061737;28;20205;-74
2021/06/30 05:24:43;;;;;;;11.30;10.40;;;;;;;16.67;97.29;99829.88;5061833;28;20219;-73
2021/06/30 05:27:10;;;;;;;11.93;10.73;;;;;;;16.70;97.80;99812.19;5060783;28;20790;-73
2021/06/30 05:29:36;;;;;;;12.47;11.27;;;;;;;16.62;98.04;99813.47;5062233;28;20201;-73
2021/06/30 05:32:03;;;;;;;11.13;10.23;;;;;;;16.71;97.82;99811.25;5061550;28;20254;-74
2021/06/30 05:34:29;;;;;;;11.23;10.23;;;;;;;16.77;97.60;99821.47;5061722;28;20207;-73
2021/06/30 05:36:56;;;;;;;12.20;11.07;;;;;;;16.77;97.34;99832.00;5061374;28;20267;-74
2021/06/30 05:39:22;;;;;;;13.50;12.50;;;;;;;16.77;97.35;99834.63;5061469;28;20214;-74
2021/06/30 05:41:50;;;;;;;13.20;12.10;;;;;;;16.76;97.42;99836.44;5061502;28;20208;-74
2021/06/30 05:44:17;;;;;;;13.20;12.00;;;;;;;16.88;97.23;99843.69;5061862;28;20279;-73
2021/06/30 05:46:45;;;;;;;13.57;12.40;;;;;;;16.79;97.00;99851.25;5061310;28;20229;-73
2021/06/30 05:49:12;;;;;;;12.67;11.47;;;;;;;16.81;97.26;99842.34;5061166;28;20293;-74
2021/06/30 05:51:41;;;;;;;14.10;13.07;;;;;;;16.83;97.03;99855.44;5060448;28;20256;-73
2021/06/30 05:54:08;;;;;;;13.87;12.77;;;;;;;16.68;96.97;99865.00;5060329;28;20205;-73
2021/06/30 05:56:34;;;;;;;14.63;13.33;;;;;;;16.67;97.23;99856.25;5060836;28;20236;-73
2021/06/30 05:59:02;;;;;;;14.93;13.70;;;;;;;16.62;97.76;99844.22;5061425;28;20644;-74
2021/06/30 06:01:28;;;;;;;15.97;14.47;;;;;;;16.66;97.59;99843.13;5061161;28;20204;-74
2021/06/30 06:03:55;;;;;;;14.47;13.27;;;;;;;16.76;97.43;99848.75;5059846;28;20252;-75
2021/06/30 06:06:21;;;;;;;15.63;14.13;;;;;;;16.61;97.32;99855.69;5061249;28;20237;-75
2021/06/30 06:08:47;;;;;;;13.97;12.60;;;;;;;16.72;97.40;99855.13;5061533;28;20213;-75
2021/06/30 06:11:14;;;;;;;15.27;13.40;;;;;;;16.73;97.22;99862.09;5061707;28;20270;-75
2021/06/30 06:13:41;;;;;;;13.63;12.53;;;;;;;16.79;97.00;99873.19;5061333;28;20260;-77
2021/06/30 06:16:08;;;;;;;15.57;14.17;;;;;;;16.75;97.03;99874.28;5061828;28;20233;-75
2021/06/30 06:18:35;;;;;;;15.50;14.20;;;;;;;16.49;97.80;99851.97;5061720;28;20258;-77
2021/06/30 06:21:02;;;;;;;16.43;15.03;;;;;;;16.54;98.05;99842.00;5063425;28;20210;-77
2021/06/30 06:23:29;;;;;;;15.10;13.50;;;;;;;16.54;97.89;99849.06;5065176;28;20272;-76
2021/06/30 06:25:55;;;;;;;15.73;13.70;;;;;;;16.42;98.37;99847.94;5065593;28;20279;-75
2021/06/30 06:28:21;;;;;;;14.90;13.50;;;;;;;16.41;98.67;99825.13;5073667;28;20630;-76
2021/06/30 06:30:49;;;;;;;16.97;13.80;;;;;;;16.29;98.63;99842.44;5073590;28;20224;-75
2021/06/30 06:33:18;;;;;;;13.90;12.33;;;;;;;16.21;98.89;99837.59;5074571;28;20205;-74
2021/06/30 06:35:47;;;;;;;16.73;12.53;;;;;;;16.17;99.46;99829.91;5075639;28;20212;-75
2021/06/30 06:38:14;;;;;;;15.87;13.90;;;;;;;16.31;99.63;99824.78;5082424;28;20542;-75
2021/06/30 06:40:40;;;;;;;14.10;13.00;;;;;;;16.38;99.81;99823.53;5076739;28;20581;-74
2021/06/30 06:43:08;;;;;;;14.80;13.47;;;;;;;16.28;99.83;99828.44;5065914;28;20209;-75
2021/06/30 06:45:34;;;;;;;14.50;13.10;;;;;;;16.26;99.36;99837.34;5064210;28;20301;-73
2021/06/30 06:48:01;;;;;;;14.43;13.13;;;;;;;16.31;99.20;99847.63;5065731;28;20262;-79
2021/06/30 06:50:29;;;;;;;13.93;12.63;;;;;;;16.20;99.29;99854.31;5066641;28;20209;-76
2021/06/30 06:52:55;;;;;;;15.57;12.87;;;;;;;16.30;99.46;99838.03;5065316;28;20205;-76
2021/06/30 06:55:23;;;;;;;14.33;12.63;;;;;;;16.26;99.47;99847.88;5065411;28;21006;-74
2021/06/30 06:57:50;;;;;;;13.50;12.23;;;;;;;16.41;99.92;99833.91;5065207;28;20228;-76
2021/06/30 07:00:17;;;;;;;14.00;12.50;;;;;;;16.45;99.66;99843.34;5065422;28;20208;-76
2021/06/30 07:02:44;;;;;;;13.47;12.37;;;;;;;16.44;99.47;99854.81;5064673;28;20258;-77
2021/06/30 07:05:10;;;;;;;14.33;13.10;;;;;;;16.45;99.48;99856.53;5064878;28;20224;-76
2021/06/30 07:07:41;;;;;;;14.43;13.03;;;;;;;16.54;99.53;99852.53;5065475;28;20276;-75
2021/06/30 07:10:08;;;;;;;12.40;11.30;;;;;;;16.65;99.38;99860.75;5065484;28;20273;-74
2021/06/30 07:12:34;;;;;;;14.67;13.47;;;;;;;16.74;99.05;99866.44;5065239;28;20211;-77
2021/06/30 07:15:02;;;;;;;12.50;11.47;;;;;;;16.80;98.64;99874.03;5064552;28;20266;-74
2021/06/30 07:17:28;;;;;;;13.87;12.40;;;;;;;16.72;98.58;99876.22;5066104;28;20237;-76
2021/06/30 07:19:55;;;;;;;14.67;13.27;;;;;;;16.74;98.60;99874.34;5065375;28;20259;-76
2021/06/30 07:22:21;;;;;;;12.40;11.30;;;;;;;16.80;98.49;99879.28;5064469;28;20567;-76
2021/06/30 07:24:49;;;;;;;13.33;12.20;;;;;;;16.70;98.42;99881.56;5064034;28;20228;-75
2021/06/30 07:27:15;;;;;;;12.87;11.67;;;;;;;16.61;98.61;99872.38;5063869;28;20225;-74
2021/06/30 07:29:42;;;;;;;14.20;12.80;;;;;;;16.47;99.20;99865.19;5064430;28;20278;-75
2021/06/30 07:32:08;;;;;;;13.70;12.13;;;;;;;16.28;99.00;99881.09;5063277;28;20235;-75
2021/06/30 07:34:35;;;;;;;12.57;11.57;;;;;;;16.35;98.79;99883.41;5064679;28;20204;-75
2021/06/30 07:37:01;;;;;;;13.57;12.27;;;;;;;16.43;99.10;99873.31;5063977;28;20221;-75
2021/06/30 07:39:29;;;;;;;11.30;10.40;;;;;;;16.33;98.20;99891.38;5064622;28;20692;-75
2021/06/30 07:41:57;;;;;;;12.40;11.40;;;;;;;16.38;98.95;99873.56;5065567;28;20234;-75
2021/06/30 07:44:24;;;;;;;10.90;10.00;;;;;;;16.40;98.45;99887.53;5064939;28;20294;-76
2021/06/30 07:46:50;;;;;;;12.20;11.00;;;;;;;16.36;98.45;99896.50;5066518;28;20224;-75
2021/06/30 07:49:17;;;;;;;10.20;9.03;;;;;;;16.36;98.53;99888.63;5064384;28;20205;-75
2021/06/30 07:51:43;;;;;;;9.37;8.57;;;;;;;16.26;97.99;99903.19;5064692;28;20212;-74
2021/06/30 07:54:10;;;;;;;9.80;8.93;;;;;;;16.23;98.53;99892.81;5066595;28;20292;-73
2021/06/30 07:56:37;;;;;;;11.93;9.40;;;;;;;16.22;98.50;99894.59;5066468;28;20305;-74
2021/06/30 07:59:05;;;;;;;10.63;9.53;;;;;;;16.32;98.84;99886.22;5064152;28;20211;-75
2021/06/30 08:01:32;;;;;;;10.37;9.27;;;;;;;16.28;99.24;99886.38;5063813;28;20282;-74
2021/06/30 08:03:59;;;;;;;10.57;9.60;;;;;;;16.39;99.28;99880.56;5062233;28;20221;-73
2021/06/30 08:06:25;;;;;;;10.47;9.57;;;;;;;16.35;99.07;99892.19;5063038;28;20289;-74
2021/06/30 08:08:51;;;;;;;11.20;9.57;;;;;;;16.46;99.20;99889.84;5064003;28;20201;-75
2021/06/30 08:11:19;;;;;;;10.03;9.27;;;;;;;16.54;98.96;99897.34;5063890;28;20197;-75
2021/06/30 08:13:46;;;;;;;14.90;9.60;;;;;;;16.51;98.62;99896.63;5063546;28;20238;-75
2021/06/30 08:16:23;;;;;;;9.47;8.67;;;;;;;16.52;98.34;99907.09;5066764;28;20704;-73
2021/06/30 08:18:58;;;;;;;10.20;9.10;;;;;;;16.45;98.26;99911.84;5066465;28;20209;-74
2021/06/30 08:21:25;;;;;;;9.53;8.47;;;;;;;16.36;98.53;99904.41;5065142;28;20291;-73
2021/06/30 08:24:42;;;;;;;9.60;8.70;;;;;;;16.40;98.58;99899.84;5064446;28;20229;-75
2021/06/30 08:27:13;;;;;;;6.60;6.10;;;;;;;16.41;98.10;99909.44;5064556;28;20703;-74
2021/06/30 08:29:43;;;;;;;8.17;7.40;;;;;;;16.46;97.15;99934.63;5064719;28;20196;-75
2021/06/30 08:32:11;;;;;;;7.73;7.13;;;;;;;16.46;96.94;99942.53;5062100;28;20235;-75
2021/06/30 08:34:37;;;;;;;7.43;6.83;;;;;;;16.54;96.99;99936.84;5062325;28;20201;-76
2021/06/30 08:37:06;;;;;;;7.43;6.73;;;;;;;16.54;96.72;99944.75;5063161;28;20232;-75
2021/06/30 08:39:33;;;;;;;7.03;6.53;;;;;;;16.65;96.48;99957.41;5062308;28;20217;-74
2021/06/30 08:42:00;;;;;;;7.70;6.33;;;;;;;16.68;96.44;99960.69;5061513;28;20212;-75
2021/06/30 08:44:26;;;;;;;6.47;6.07;;;;;;;16.63;95.98;99968.00;5062056;28;20266;-74
2021/06/30 08:46:55;;;;;;;7.00;6.50;;;;;;;16.64;95.20;100003.13;5062706;28;20302;-74
2021/06/30 08:49:26;;;;;;;7.23;6.57;;;;;;;16.59;95.41;99991.94;5061982;28;20217;-76
2021/06/30 08:51:53;;;;;;;6.83;6.33;;;;;;;16.63;95.65;99988.22;5062883;28;20209;-76
2021/06/30 08:54:21;;;;;;;7.57;6.73;;;;;;;16.54;95.49;99997.47;5062809;28;20208;-76
2021/06/30 08:56:47;;;;;;;8.17;7.47;;;;;;;16.63;95.74;99980.31;5062436;28;20236;-74
2021/06/30 08:59:14;;;;;;;7.03;6.53;;;;;;;16.77;95.68;99976.97;5062309;28;20204;-74
2021/06/30 09:01:41;;;;;;;8.07;7.30;;;;;;;16.71;94.94;100015.06;5062178;28;20354;-74
2021/06/30 09:04:10;;;;;;;8.17;7.47;;;;;;;16.81;95.01;100016.31;5063758;28;20294;-74
2021/06/30 09:06:38;;;;;;;7.27;6.70;;;;;;;16.82;94.69;100028.56;5062377;28;20298;-73
2021/06/30 09:09:07;;;;;;;8.23;7.50;;;;;;;16.77;95.00;100017.38;5062212;28;20634;-74
2021/06/30 09:11:35;;;;;;;8.87;7.97;;;;;;;16.68;94.55;100020.47;5059728;28;20288;-74
2021/06/30 09:14:22;;;;;;;9.00;8.30;;;;;;;16.75;94.27;100035.06;5061992;28;20556;-75
2021/06/30 09:16:57;;;;;;;10.07;8.47;;;;;;;16.83;94.22;100035.53;5061586;28;20227;-75
2021/06/30 09:19:46;;;;;;;8.50;7.80;;;;;;;16.74;93.80;100056.22;5064483;28;20293;-74
2021/06/30 09:22:14;;;;;;;9.07;8.27;;;;;;;16.86;94.07;100042.44;5065465;28;20208;-73
2021/06/30 09:24:41;;;;;;;9.20;8.40;;;;;;;16.81;93.51;100070.81;5065088;28;20320;-76
2021/06/30 09:27:09;;;;;;;9.97;7.80;;;;;;;16.96;93.93;100048.94;5061959;28;20286;-75
2021/06/30 09:29:38;;;;;;;8.27;7.43;;;;;;;17.04;92.71;100085.47;5062066;28;20208;-73
2021/06/30 09:32:09;;;;;;;8.50;7.80;;;;;;;17.10;92.76;100085.13;5060674;28;20237;-75
2021/06/30 09:34:35;;;;;;;8.87;8.07;;;;;;;17.06;91.96;100109.97;5060067;28;20197;-73
2021/06/30 09:37:05;;;;;;;8.57;7.73;;;;;;;16.99;92.09;100105.97;5059806;28;20707;-73
2021/06/30 09:39:37;;;;;;;11.27;8.50;;;;;;;17.11;92.82;100075.47;5060857;28;20208;-73
2021/06/30 09:42:05;;;;;;;9.40;8.53;;;;;;;17.25;93.35;100057.13;5061192;28;20666;-73
2021/06/30 09:44:32;;;;;;;9.10;7.70;;;;;;;17.33;93.38;100059.38;5060906;28;20228;-75
2021/06/30 09:46:59;;;;;;;11.10;10.03;;;;;;;17.23;91.96;100098.56;5061016;28;20230;-75
2021/06/30 09:49:26;;;;;;;12.43;11.27;;;;;;;17.29;92.02;100105.31;5060795;28;20682;-74
2021/06/30 09:52:09;;;;;;;11.17;10.27;;;;;;;17.19;91.90;100102.28;5060927;28;20558;-74
2021/06/30 09:54:39;;;;;;;11.53;10.63;;;;;;;17.34;91.85;100104.09;5061698;28;20298;-74
2021/06/30 09:57:07;;;;;;;13.30;11.87;;;;;;;17.32;91.60;100124.44;5065137;28;20220;-74
2021/06/30 09:59:37;;;;;;;11.83;10.80;;;;;;;17.41;91.40;100123.97;5065429;28;20209;-74
2021/06/30 10:02:05;;;;;;;13.20;12.20;;;;;;;17.46;90.87;100150.97;5065053;28;20209;-74
2021/06/30 10:04:33;;;;;;;14.90;13.33;;;;;;;17.43;90.99;100150.28;5065379;28;20234;-75
2021/06/30 10:07:07;;;;;;;13.23;12.23;;;;;;;17.46;90.61;100161.53;5065526;28;20270;-73
2021/06/30 10:09:34;;;;;;;14.10;12.97;;;;;;;17.59;90.88;100143.25;5065045;28;20298;-74
2021/06/30 10:12:05;;;;;;;16.20;14.90;;;;;;;17.63;90.42;100162.44;5064847;28;20205;-74
2021/06/30 10:14:32;;;;;;;14.93;13.53;;;;;;;17.71;90.52;100157.59;5064704;28;20213;-74
2021/06/30 10:16:59;;;;;;;14.43;13.30;;;;;;;17.85;90.03;100180.66;5065220;28;20230;-74
2021/06/30 10:19:26;;;;;;;14.80;13.60;;;;;;;17.65;89.41;100211.56;5064825;28;20668;-74
2021/06/30 10:21:53;;;;;;;14.80;13.07;;;;;;;17.77;90.31;100169.63;5065086;28;20209;-74
2021/06/30 10:24:20;;;;;;;15.70;14.33;;;;;;;17.62;90.56;100148.41;5065201;28;20209;-74
2021/06/30 10:26:47;;;;;;;15.30;13.93;;;;;;;17.33;90.24;100154.34;5064432;28;20355;-74
2021/06/30 10:29:15;;;;;;;14.63;13.50;;;;;;;17.48;90.78;100129.75;5064110;28;20255;-74
2021/06/30 10:31:45;;;;;;;16.00;14.70;;;;;;;17.50;90.99;100127.91;5064845;28;20288;-74
2021/06/30 10:34:13;;;;;;;15.67;14.27;;;;;;;17.53;91.02;100113.72;5064402;28;20239;-73
2021/06/30 10:36:53;;;;;;;16.10;14.93;;;;;;;17.62;91.26;100111.44;5064747;28;20226;-74
2021/06/30 10:39:21;;;;;;;15.53;14.33;;;;;;;17.71;91.21;100107.44;5064401;28;20213;-74
2021/06/30 10:41:54;;;;;;;14.63;13.63;;;;;;;17.81;90.94;100113.06;5064055;28;20267;-74
2021/06/30 10:44:23;;;;;;;15.20;13.97;;;;;;;17.88;90.55;100140.03;5064275;28;20296;-74
2021/06/30 10:46:53;;;;;;;14.47;13.33;;;;;;;17.92;89.26;100186.44;5064281;28;20275;-74
2021/06/30 10:49:25;;;;;;;14.93;13.83;;;;;;;17.70;89.88;100169.09;5064896;28;20216;-74
2021/06/30 10:51:54;;;;;;;15.87;14.73;;;;;;;17.72;90.96;100127.63;5064040;28;20254;-73
2021/06/30 10:54:37;;;;;;;15.30;14.10;;;;;;;17.77;90.78;100124.75;5064119;28;20211;-74
2021/06/30 10:57:24;;;;;;;15.93;14.73;;;;;;;17.98;90.39;100146.53;5064212;28;20274;-74
2021/06/30 11:00:14;;;;;;;15.53;14.20;;;;;;;18.15;89.93;100162.28;5063912;28;20206;-73
2021/06/30 11:02:40;;;;;;;15.20;14.03;;;;;;;18.18;89.33;100187.72;5063962;28;20672;-71
2021/06/30 11:05:33;;;;;;;14.70;13.60;;;;;;;18.14;88.69;100213.44;5064271;28;20235;-71
2021/06/30 11:07:59;;;;;;;14.30;13.30;;;;;;;18.11;88.43;100212.75;5063183;28;20211;-71
2021/06/30 11:10:51;;;;;;;15.60;14.40;;;;;;;18.10;89.55;100180.19;5064399;28;20625;-72
2021/06/30 11:13:17;;;;;;;13.43;12.40;;;;;;;18.23;88.90;100210.28;5064293;28;20218;-73
2021/06/30 11:15:45;;;;;;;14.57;13.37;;;;;;;18.18;88.55;100229.97;5063969;28;20202;-73
2021/06/30 11:18:46;;;;;;;13.97;12.87;;;;;;;18.25;88.68;100207.56;5063987;28;20211;-73
2021/06/30 11:21:15;;;;;;;12.90;11.93;;;;;;;18.41;88.68;100218.13;5063779;28;20205;-73
2021/06/30 11:23:43;;;;;;;13.63;12.60;;;;;;;18.15;89.09;100204.56;5063738;28;20208;-74
2021/06/30 11:26:33;;;;;;;11.57;10.77;;;;;;;18.13;88.04;100227.56;5063634;28;20242;-73
2021/06/30 11:28:59;;;;;;;12.43;11.47;;;;;;;18.19;88.58;100214.03;5063349;28;20207;-73